Goose Bay, Canada
Current Conditions -  °F | °C
As of 5:00 AM on Monday 24 Nov 2014 (Local Time) from CYYR Reporting Station
Few Clouds Few Clouds  
Wind Chill: -6°   Ceiling: Unl
Heat Index: 12°   Visibility: 15mi
Dew Point:   Wind: 20mph
Humidity: 73%   Direction: 270°W
Pressure: 30.1"   Gusts: NA
Location:  53.31°N, 60.41°W
Report Text: CYYR 240900Z 27017KT 15SM FEW270 M11/M15 A3010 RMK CI1 SLP196
Loading
Personal Weather Stations






























Interactive Weather Map New forecast layout! Learn more

10-Day Weather Forecast

Advertisements
Track Severe Weather on mobile